createdAt,value
2023-02-28T00:04:10.173Z,101738.97
2023-02-28T00:09:11.434Z,101731.59
2023-02-28T00:14:12.578Z,101737.38
2023-02-28T00:19:14.281Z,101726.66
2023-02-28T00:24:15.488Z,101729.63
2023-02-28T00:29:16.663Z,101730.34
2023-02-28T00:34:17.885Z,101727.16
2023-02-28T00:39:19.105Z,101730.47
2023-02-28T00:44:22.471Z,101725.94
2023-02-28T00:49:23.681Z,101732.19
2023-02-28T00:54:24.921Z,101733.25
2023-02-28T00:59:26.113Z,101728.66
2023-02-28T01:04:27.322Z,101729.78
2023-02-28T01:09:28.544Z,101732.13
2023-02-28T01:14:29.697Z,101728.50
2023-02-28T01:19:30.903Z,101738.84
2023-02-28T01:24:33.630Z,101730.84
2023-02-28T01:29:35.590Z,101734.16
2023-02-28T01:34:36.763Z,101734.34
2023-02-28T01:39:37.958Z,101719.84
2023-02-28T01:44:39.116Z,101725.38
2023-02-28T01:49:40.283Z,101726.53
2023-02-28T01:54:41.489Z,101708.44
2023-02-28T01:59:49.932Z,101710.50
2023-02-28T02:04:51.367Z,101707.56
2023-02-28T02:09:52.593Z,101703.53
2023-02-28T02:14:53.763Z,101700.72
2023-02-28T02:19:55.378Z,101688.38
2023-02-28T02:24:56.556Z,101691.75
2023-02-28T02:29:57.754Z,101680.78
2023-02-28T02:34:58.905Z,101682.16
2023-02-28T02:40:00.148Z,101680.13
2023-02-28T02:45:01.383Z,101684.00
2023-02-28T02:50:03.075Z,101676.75
2023-02-28T02:55:04.347Z,101677.81
2023-02-28T03:00:06.130Z,101680.31
2023-02-28T03:05:07.278Z,101680.59
2023-02-28T03:10:08.474Z,101679.56
2023-02-28T03:15:09.607Z,101683.22
2023-02-28T03:20:10.785Z,101670.69
2023-02-28T03:25:11.951Z,101671.84
2023-02-28T03:30:13.221Z,101632.16
2023-02-28T03:35:14.436Z,101674.16
2023-02-28T03:40:15.614Z,101676.28
2023-02-28T03:45:16.788Z,101677.19
2023-02-28T03:50:18.007Z,101674.97
2023-02-28T03:55:19.198Z,101676.94
2023-02-28T04:00:20.426Z,101678.50
2023-02-28T04:05:21.590Z,101686.50
2023-02-28T04:10:22.851Z,101685.28
2023-02-28T04:15:25.643Z,101682.97
2023-02-28T04:20:26.896Z,101683.03
2023-02-28T04:25:28.121Z,101687.41
2023-02-28T04:30:30.658Z,101692.31
2023-02-28T04:35:31.991Z,101687.69
2023-02-28T04:40:33.257Z,101692.84
2023-02-28T04:45:34.856Z,101694.63
2023-02-28T04:50:36.127Z,101711.44
2023-02-28T04:55:37.360Z,101706.00
2023-02-28T05:00:38.577Z,101698.63
2023-02-28T05:05:39.750Z,101710.91
2023-02-28T05:10:40.933Z,101712.88
2023-02-28T05:15:42.111Z,101714.19
2023-02-28T05:20:43.279Z,101719.47
2023-02-28T05:25:44.437Z,101721.41
2023-02-28T05:30:45.606Z,101723.00
2023-02-28T05:35:46.978Z,101724.34
2023-02-28T05:40:48.173Z,101723.00
2023-02-28T05:45:49.465Z,101724.25
2023-02-28T05:50:50.691Z,101724.50
2023-02-28T05:55:51.846Z,101725.84
2023-02-28T06:00:52.995Z,101723.34
2023-02-28T06:05:54.224Z,101724.78
2023-02-28T06:10:55.417Z,101725.13
2023-02-28T06:15:56.713Z,101725.13
2023-02-28T06:20:57.842Z,101734.75
2023-02-28T06:25:59.337Z,101735.47
2023-02-28T06:31:00.642Z,101735.38
2023-02-28T06:36:02.353Z,101741.31
2023-02-28T06:41:03.644Z,101754.81
2023-02-28T06:46:04.815Z,101753.06
2023-02-28T06:51:05.989Z,101763.44
2023-02-28T06:56:07.246Z,101766.59
2023-02-28T07:01:08.558Z,101774.84
2023-02-28T07:06:09.798Z,101781.41
2023-02-28T07:11:10.999Z,101776.34
2023-02-28T07:16:12.212Z,101783.63
2023-02-28T07:21:13.470Z,101787.09
2023-02-28T07:26:15.601Z,101777.47
2023-02-28T07:31:16.959Z,101791.22
2023-02-28T07:36:19.769Z,101788.06
2023-02-28T07:41:21.074Z,101789.38
2023-02-28T07:46:22.305Z,101791.91
2023-02-28T07:51:23.494Z,101790.81
2023-02-28T07:56:24.708Z,101791.75
2023-02-28T08:01:26.012Z,101801.53
2023-02-28T08:06:27.392Z,101795.66
2023-02-28T08:11:28.966Z,101802.63
2023-02-28T08:16:30.376Z,101800.00
2023-02-28T08:21:31.825Z,101803.13
2023-02-28T08:26:33.196Z,101802.56
2023-02-28T08:31:36.320Z,101806.03
2023-02-28T08:36:37.639Z,101802.84
2023-02-28T08:41:38.785Z,101808.28
2023-02-28T08:46:40.118Z,101801.84
2023-02-28T08:51:41.359Z,101806.94
2023-02-28T08:56:42.531Z,101808.84
2023-02-28T09:01:44.527Z,101809.47
2023-02-28T09:06:45.834Z,101812.31
2023-02-28T09:11:47.315Z,101809.13
2023-02-28T09:16:48.676Z,101809.50
2023-02-28T09:21:50.010Z,101797.75
2023-02-28T09:27:03.483Z,101789.75
2023-02-28T09:32:06.714Z,101789.09
2023-02-28T09:37:08.051Z,101785.59
2023-02-28T09:42:09.270Z,101779.72
2023-02-28T09:47:11.535Z,101793.63
2023-02-28T09:52:12.812Z,101787.59
2023-02-28T09:57:14.005Z,101783.84
2023-02-28T10:02:15.246Z,101789.00
2023-02-28T10:07:18.758Z,101777.81
2023-02-28T10:12:19.982Z,101770.63
2023-02-28T10:17:21.161Z,101785.69
2023-02-28T10:22:22.327Z,101771.56
2023-02-28T10:27:23.564Z,101776.91
2023-02-28T10:32:25.408Z,101766.53
2023-02-28T10:37:26.745Z,101778.00
2023-02-28T10:42:28.058Z,101765.00
2023-02-28T10:47:29.313Z,101761.28
2023-02-28T10:52:30.453Z,101767.88
2023-02-28T10:57:31.676Z,101755.81
2023-02-28T11:07:45.699Z,101751.56
2023-02-28T11:12:53.909Z,101742.38
2023-02-28T11:17:55.270Z,101735.06
2023-02-28T11:22:56.448Z,101735.34
2023-02-28T11:27:57.638Z,101730.00
2023-02-28T11:32:58.941Z,101729.63
2023-02-28T11:38:00.167Z,101733.06
2023-02-28T11:43:01.344Z,101726.81
2023-02-28T11:48:02.503Z,101728.63
2023-02-28T11:53:03.706Z,101725.22
2023-02-28T11:58:04.833Z,101724.09
2023-02-28T12:03:06.047Z,101728.84
2023-02-28T12:08:07.301Z,101720.53
2023-02-28T12:13:08.528Z,101713.22
2023-02-28T12:18:09.757Z,101714.22
2023-02-28T12:23:10.975Z,101712.66
2023-02-28T12:28:12.257Z,101692.84
2023-02-28T12:33:13.490Z,101691.16
2023-02-28T12:38:14.789Z,101685.75
2023-02-28T12:43:15.930Z,101687.19
2023-02-28T12:48:17.087Z,101670.53
2023-02-28T12:53:18.307Z,101663.00
2023-02-28T12:58:19.513Z,101651.69
2023-02-28T13:03:20.674Z,101642.06
2023-02-28T13:08:21.853Z,101646.13
2023-02-28T13:13:23.091Z,101641.66
2023-02-28T13:18:24.241Z,101641.13
2023-02-28T13:23:25.382Z,101626.28
2023-02-28T13:28:26.880Z,101624.97
2023-02-28T13:33:28.137Z,101640.22
2023-02-28T13:38:29.637Z,101626.06
2023-02-28T13:43:36.158Z,101623.53
2023-02-28T13:48:37.647Z,101626.78
2023-02-28T13:53:38.827Z,101625.19
2023-02-28T13:58:40.285Z,101612.06
2023-02-28T14:03:41.492Z,101604.53
2023-02-28T14:08:42.710Z,101598.81
2023-02-28T14:13:48.014Z,101597.88
2023-02-28T14:18:49.318Z,101596.53
2023-02-28T14:23:50.493Z,101589.63
2023-02-28T14:28:51.795Z,101585.81
2023-02-28T14:33:52.950Z,101584.13
2023-02-28T14:38:57.094Z,101587.47
2023-02-28T14:43:58.325Z,101577.25
2023-02-28T14:48:59.513Z,101574.22
2023-02-28T14:54:00.749Z,101585.81
2023-02-28T14:59:02.127Z,101586.53
2023-02-28T15:04:03.732Z,101588.28
2023-02-28T15:09:04.923Z,101572.56
2023-02-28T15:14:06.171Z,101571.41
2023-02-28T15:19:07.358Z,101571.97
2023-02-28T15:24:08.552Z,101565.53
2023-02-28T15:29:09.765Z,101563.50
2023-02-28T15:34:10.938Z,101565.41
2023-02-28T15:39:16.146Z,101555.59
2023-02-28T15:44:17.641Z,101566.97
2023-02-28T15:49:18.814Z,101560.28
2023-02-28T15:54:20.111Z,101565.38
2023-02-28T15:59:21.390Z,101569.13
2023-02-28T16:04:24.801Z,101563.69
2023-02-28T16:09:28.161Z,101566.59
2023-02-28T16:14:31.011Z,101566.25
2023-02-28T16:19:33.823Z,101575.00
2023-02-28T16:24:35.882Z,101574.88
2023-02-28T16:29:37.169Z,101581.31
2023-02-28T16:34:38.458Z,101585.47
2023-02-28T16:39:39.759Z,101588.06
2023-02-28T16:44:41.311Z,101590.41
2023-02-28T16:49:44.030Z,101595.56
2023-02-28T16:54:45.239Z,101602.28
2023-02-28T16:59:46.454Z,101608.81
2023-02-28T17:04:47.687Z,101611.38
2023-02-28T17:09:48.914Z,101608.69
2023-02-28T17:14:50.096Z,101616.22
2023-02-28T17:19:51.392Z,101636.03
2023-02-28T17:24:52.573Z,101641.41
2023-02-28T17:29:53.752Z,101648.78
2023-02-28T17:34:54.989Z,101652.06
2023-02-28T17:39:56.262Z,101654.34
2023-02-28T17:44:57.574Z,101661.81
2023-02-28T17:49:58.878Z,101666.09
2023-02-28T17:55:00.012Z,101671.94
2023-02-28T18:00:02.746Z,101667.59
2023-02-28T18:05:05.447Z,101666.06
2023-02-28T18:10:06.705Z,101675.66
2023-02-28T18:15:07.940Z,101671.34
2023-02-28T18:20:10.253Z,101662.38
2023-02-28T18:25:14.504Z,101670.22
2023-02-28T18:30:15.752Z,101666.63
2023-02-28T18:35:34.904Z,101675.66
2023-02-28T18:40:36.305Z,101678.06
2023-02-28T18:45:38.353Z,101685.84
2023-02-28T18:50:39.696Z,101694.03
2023-02-28T18:55:40.825Z,101694.63
2023-02-28T19:00:42.044Z,101701.44
2023-02-28T19:05:43.204Z,101700.03
2023-02-28T19:10:44.401Z,101692.66
2023-02-28T19:15:45.584Z,101699.44
2023-02-28T19:20:47.106Z,101699.41
2023-02-28T19:25:48.290Z,101708.00
2023-02-28T19:30:49.810Z,101705.81
2023-02-28T19:35:51.103Z,101702.22
2023-02-28T19:40:52.321Z,101706.97
2023-02-28T19:45:53.528Z,101708.19
2023-02-28T19:50:54.732Z,101717.75
2023-02-28T19:55:56.408Z,101717.75
2023-02-28T20:00:57.627Z,101722.69
2023-02-28T20:05:58.837Z,101722.28
2023-02-28T20:11:01.496Z,101723.28
2023-02-28T20:16:05.995Z,101721.06
2023-02-28T20:21:07.188Z,101719.69
2023-02-28T20:26:08.434Z,101717.06
2023-02-28T20:31:09.614Z,101707.28
2023-02-28T20:36:11.932Z,101715.19
2023-02-28T20:41:13.168Z,101713.59
2023-02-28T20:46:14.355Z,101710.38
2023-02-28T20:51:16.295Z,101710.34
2023-02-28T20:56:17.560Z,101714.72
2023-02-28T21:01:18.847Z,101702.00
2023-02-28T21:06:20.081Z,101707.75
2023-02-28T21:11:21.308Z,101706.56
2023-02-28T21:16:22.597Z,101701.16
2023-02-28T21:21:23.841Z,101696.94
2023-02-28T21:26:24.982Z,101706.28
2023-02-28T21:31:26.201Z,101711.59
2023-02-28T21:36:29.506Z,101715.78
2023-02-28T21:41:31.054Z,101716.56
2023-02-28T21:46:32.612Z,101721.56
2023-02-28T21:51:34.007Z,101727.34
2023-02-28T21:56:35.657Z,101734.50
2023-02-28T22:01:36.915Z,101731.09
2023-02-28T22:06:38.266Z,101726.50
2023-02-28T22:11:39.563Z,101718.13
2023-02-28T22:16:51.154Z,101719.69
2023-02-28T22:21:54.120Z,101727.00
2023-02-28T22:26:55.381Z,101723.75
2023-02-28T22:31:56.572Z,101733.81
2023-02-28T22:36:57.977Z,101725.59
2023-02-28T22:41:59.114Z,101717.53
2023-02-28T22:47:00.311Z,101725.19
2023-02-28T22:52:01.471Z,101716.81
2023-02-28T22:57:02.701Z,101673.03
2023-02-28T23:02:03.904Z,101723.84
2023-02-28T23:07:05.096Z,101738.38
2023-02-28T23:12:06.306Z,101734.16
2023-02-28T23:17:07.484Z,101729.25
2023-02-28T23:22:08.736Z,101722.13
2023-02-28T23:27:09.946Z,101723.47
2023-02-28T23:32:11.342Z,101715.19
2023-02-28T23:37:12.580Z,101712.38
2023-02-28T23:42:14.124Z,101710.25
2023-02-28T23:47:15.652Z,101715.66
2023-02-28T23:52:16.992Z,101717.75
2023-02-28T23:57:18.516Z,101732.41
